JAD weather

Perth Jandakot Airport
Perth, Western Australia, Australia

Public forecast

Using degrees Celsius for public forecast. Weather courtesy of forecast.io.

METAR (pilot weather report)

Retrieved 2018/09/21 13:30 UTC (10 minutes ago):

YPJT 211330Z AUTO 18007KT 9999 // NCD 13/13 Q1021 RF00.0/000.0

TAF (pilot weather forecast)

Retrieved 2018/09/21 12:00 UTC (2 hours ago):

TAF YPJT 211114Z 2112/2206 18006KT CAVOK FM211800 VRB03KT CAVOK FM220400 24012KT CAVOK PROB30 2117/2124 0300 FG